sensor_id;sensor_type;location;lat;lon;timestamp;temperature;humidity
7014;DHT22;3547;50.774;12.918;2023-05-10T00:00:38;11.70;1.00
7014;DHT22;3547;50.774;12.918;2023-05-10T00:03:27;11.70;1.00
7014;DHT22;3547;50.774;12.918;2023-05-10T00:05:56;11.70;1.00
7014;DHT22;3547;50.774;12.918;2023-05-10T00:11:45;11.60;1.00
7014;DHT22;3547;50.774;12.918;2023-05-10T00:14:33;11.60;1.00
7014;DHT22;3547;50.774;12.918;2023-05-10T00:17:00;11.60;1.00
7014;DHT22;3547;50.774;12.918;2023-05-10T00:19:50;11.60;1.00
7014;DHT22;3547;50.774;12.918;2023-05-10T00:22:33;11.60;1.00
7014;DHT22;3547;50.774;12.918;2023-05-10T00:25:18;11.50;1.00
7014;DHT22;3547;50.774;12.918;2023-05-10T00:27:45;11.50;1.00
7014;DHT22;3547;50.774;12.918;2023-05-10T00:30:12;11.50;1.00
7014;DHT22;3547;50.774;12.918;2023-05-10T00:32:38;11.40;1.00
7014;DHT22;3547;50.774;12.918;2023-05-10T00:35:04;11.40;1.00
7014;DHT22;3547;50.774;12.918;2023-05-10T00:44:23;11.40;1.00
7014;DHT22;3547;50.774;12.918;2023-05-10T00:46:51;11.40;1.00
7014;DHT22;3547;50.774;12.918;2023-05-10T00:49:19;11.30;1.00
7014;DHT22;3547;50.774;12.918;2023-05-10T00:51:48;11.30;1.00
7014;DHT22;3547;50.774;12.918;2023-05-10T00:54:15;11.30;1.00
7014;DHT22;3547;50.774;12.918;2023-05-10T00:56:42;11.30;1.00
7014;DHT22;3547;50.774;12.918;2023-05-10T00:59:09;11.20;1.00
7014;DHT22;3547;50.774;12.918;2023-05-10T01:01:36;11.20;1.00
7014;DHT22;3547;50.774;12.918;2023-05-10T01:04:05;11.20;1.00
7014;DHT22;3547;50.774;12.918;2023-05-10T01:06:32;11.20;1.00
7014;DHT22;3547;50.774;12.918;2023-05-10T01:08:58;11.20;1.00
7014;DHT22;3547;50.774;12.918;2023-05-10T01:11:24;11.20;1.00
7014;DHT22;3547;50.774;12.918;2023-05-10T01:14:00;11.10;1.00
7014;DHT22;3547;50.774;12.918;2023-05-10T01:16:32;11.10;1.00
7014;DHT22;3547;50.774;12.918;2023-05-10T01:18:59;11.10;1.00
7014;DHT22;3547;50.774;12.918;2023-05-10T01:27:19;11.00;1.00
7014;DHT22;3547;50.774;12.918;2023-05-10T01:29:52;11.00;1.00
7014;DHT22;3547;50.774;12.918;2023-05-10T01:41:17;10.90;1.00
7014;DHT22;3547;50.774;12.918;2023-05-10T01:46:36;10.90;1.00
7014;DHT22;3547;50.774;12.918;2023-05-10T01:49:26;10.80;1.00
7014;DHT22;3547;50.774;12.918;2023-05-10T01:52:02;10.80;1.00
7014;DHT22;3547;50.774;12.918;2023-05-10T01:54:33;10.80;1.00
7014;DHT22;3547;50.774;12.918;2023-05-10T02:00:27;10.70;1.00
7014;DHT22;3547;50.774;12.918;2023-05-10T02:02:56;10.70;1.00
7014;DHT22;3547;50.774;12.918;2023-05-10T02:05:23;10.70;1.00
7014;DHT22;3547;50.774;12.918;2023-05-10T02:07:55;10.70;1.00
7014;DHT22;3547;50.774;12.918;2023-05-10T02:10:22;10.70;1.00
7014;DHT22;3547;50.774;12.918;2023-05-10T02:24:11;10.60;1.00
7014;DHT22;3547;50.774;12.918;2023-05-10T02:42:16;10.00;1.00
7014;DHT22;3547;50.774;12.918;2023-05-10T02:48:13;10.10;1.00
7014;DHT22;3547;50.774;12.918;2023-05-10T02:50:45;10.10;1.00
7014;DHT22;3547;50.774;12.918;2023-05-10T03:03:43;10.10;1.00
7014;DHT22;3547;50.774;12.918;2023-05-10T03:06:13;10.10;1.00
7014;DHT22;3547;50.774;12.918;2023-05-10T03:08:46;10.10;1.00
7014;DHT22;3547;50.774;12.918;2023-05-10T03:40:50;9.50;1.00
7014;DHT22;3547;50.774;12.918;2023-05-10T04:12:07;10.00;1.00
7014;DHT22;3547;50.774;12.918;2023-05-10T04:14:45;10.10;1.00
7014;DHT22;3547;50.774;12.918;2023-05-10T04:17:13;10.20;1.00
7014;DHT22;3547;50.774;12.918;2023-05-10T04:20:13;10.20;1.00
7014;DHT22;3547;50.774;12.918;2023-05-10T04:26:34;10.40;1.00
7014;DHT22;3547;50.774;12.918;2023-05-10T04:57:24;11.00;1.00
7014;DHT22;3547;50.774;12.918;2023-05-10T05:00:01;11.10;1.00
7014;DHT22;3547;50.774;12.918;2023-05-10T05:02:29;11.20;1.00
7014;DHT22;3547;50.774;12.918;2023-05-10T05:04:56;11.30;1.00
7014;DHT22;3547;50.774;12.918;2023-05-10T05:07:23;11.30;1.00
7014;DHT22;3547;50.774;12.918;2023-05-10T05:09:52;11.40;1.00
7014;DHT22;3547;50.774;12.918;2023-05-10T05:12:18;11.50;1.00
7014;DHT22;3547;50.774;12.918;2023-05-10T05:14:45;11.60;1.00
7014;DHT22;3547;50.774;12.918;2023-05-10T05:17:14;11.60;1.00
7014;DHT22;3547;50.774;12.918;2023-05-10T05:19:41;11.70;1.00
7014;DHT22;3547;50.774;12.918;2023-05-10T05:22:11;11.80;1.00
7014;DHT22;3547;50.774;12.918;2023-05-10T05:24:42;11.90;1.00
7014;DHT22;3547;50.774;12.918;2023-05-10T05:27:14;11.90;1.00
7014;DHT22;3547;50.774;12.918;2023-05-10T05:29:43;12.00;1.00
7014;DHT22;3547;50.774;12.918;2023-05-10T05:32:10;12.10;1.00
7014;DHT22;3547;50.774;12.918;2023-05-10T05:34:48;12.20;1.00
7014;DHT22;3547;50.774;12.918;2023-05-10T05:37:20;12.30;1.00
7014;DHT22;3547;50.774;12.918;2023-05-10T05:39:56;12.30;1.00
7014;DHT22;3547;50.774;12.918;2023-05-10T05:42:31;12.40;1.00
7014;DHT22;3547;50.774;12.918;2023-05-10T05:45:00;12.60;1.00
7014;DHT22;3547;50.774;12.918;2023-05-10T05:47:27;12.70;1.00
7014;DHT22;3547;50.774;12.918;2023-05-10T05:50:19;12.80;1.00
7014;DHT22;3547;50.774;12.918;2023-05-10T05:52:45;12.80;1.00
7014;DHT22;3547;50.774;12.918;2023-05-10T05:55:26;12.90;1.00
7014;DHT22;3547;50.774;12.918;2023-05-10T05:57:58;13.00;1.00
7014;DHT22;3547;50.774;12.918;2023-05-10T06:00:54;13.10;1.00
7014;DHT22;3547;50.774;12.918;2023-05-10T06:03:21;13.20;1.00
7014;DHT22;3547;50.774;12.918;2023-05-10T06:06:09;13.20;1.00
7014;DHT22;3547;50.774;12.918;2023-05-10T06:08:57;13.30;1.00
7014;DHT22;3547;50.774;12.918;2023-05-10T06:11:28;13.30;1.00
7014;DHT22;3547;50.774;12.918;2023-05-10T06:14:17;13.40;1.00
7014;DHT22;3547;50.774;12.918;2023-05-10T06:16:53;13.40;1.00
7014;DHT22;3547;50.774;12.918;2023-05-10T06:19:21;13.40;1.00
7014;DHT22;3547;50.774;12.918;2023-05-10T06:21:51;13.40;1.00
7014;DHT22;3547;50.774;12.918;2023-05-10T06:24:39;13.50;1.00
7014;DHT22;3547;50.774;12.918;2023-05-10T06:27:06;13.50;1.00
7014;DHT22;3547;50.774;12.918;2023-05-10T06:29:33;13.50;1.00
7014;DHT22;3547;50.774;12.918;2023-05-10T06:32:01;13.60;1.00
7014;DHT22;3547;50.774;12.918;2023-05-10T06:34:52;13.60;1.00
7014;DHT22;3547;50.774;12.918;2023-05-10T06:37:52;13.60;1.00
7014;DHT22;3547;50.774;12.918;2023-05-10T06:40:23;13.60;1.00
7014;DHT22;3547;50.774;12.918;2023-05-10T06:43:40;13.70;1.00
7014;DHT22;3547;50.774;12.918;2023-05-10T06:46:12;13.70;1.00
7014;DHT22;3547;50.774;12.918;2023-05-10T06:48:39;13.80;1.00
7014;DHT22;3547;50.774;12.918;2023-05-10T06:51:07;13.80;1.00
7014;DHT22;3547;50.774;12.918;2023-05-10T06:53:33;13.90;1.00
7014;DHT22;3547;50.774;12.918;2023-05-10T06:55:59;13.90;1.00
7014;DHT22;3547;50.774;12.918;2023-05-10T06:58:25;14.00;1.00
7014;DHT22;3547;50.774;12.918;2023-05-10T07:01:25;14.20;1.00
7014;DHT22;3547;50.774;12.918;2023-05-10T07:10:18;14.50;1.00
7014;DHT22;3547;50.774;12.918;2023-05-10T07:12:44;14.70;1.00
7014;DHT22;3547;50.774;12.918;2023-05-10T07:15:12;14.80;1.00
7014;DHT22;3547;50.774;12.918;2023-05-10T07:17:53;14.90;1.00
7014;DHT22;3547;50.774;12.918;2023-05-10T07:20:19;15.00;1.00
7014;DHT22;3547;50.774;12.918;2023-05-10T07:22:45;15.20;1.00
7014;DHT22;3547;50.774;12.918;2023-05-10T07:25:12;15.40;1.00
7014;DHT22;3547;50.774;12.918;2023-05-10T07:27:38;15.50;1.00
7014;DHT22;3547;50.774;12.918;2023-05-10T07:30:06;15.80;1.00
7014;DHT22;3547;50.774;12.918;2023-05-10T07:32:35;16.00;1.00
7014;DHT22;3547;50.774;12.918;2023-05-10T07:35:02;16.10;1.00
7014;DHT22;3547;50.774;12.918;2023-05-10T07:37:29;16.20;1.00
7014;DHT22;3547;50.774;12.918;2023-05-10T07:39:55;16.30;1.00
7014;DHT22;3547;50.774;12.918;2023-05-10T07:42:21;16.50;1.00
7014;DHT22;3547;50.774;12.918;2023-05-10T07:44:48;16.70;1.00
7014;DHT22;3547;50.774;12.918;2023-05-10T07:47:14;16.90;1.00
7014;DHT22;3547;50.774;12.918;2023-05-10T07:49:40;17.00;1.00
7014;DHT22;3547;50.774;12.918;2023-05-10T07:52:07;17.10;1.00
7014;DHT22;3547;50.774;12.918;2023-05-10T07:54:33;17.10;1.00
7014;DHT22;3547;50.774;12.918;2023-05-10T07:57:00;17.10;1.00
7014;DHT22;3547;50.774;12.918;2023-05-10T07:59:26;17.10;1.00
7014;DHT22;3547;50.774;12.918;2023-05-10T08:01:52;17.10;1.00
7014;DHT22;3547;50.774;12.918;2023-05-10T08:04:18;17.00;1.00
7014;DHT22;3547;50.774;12.918;2023-05-10T08:06:47;17.00;1.00
7014;DHT22;3547;50.774;12.918;2023-05-10T08:09:28;17.00;1.00
7014;DHT22;3547;50.774;12.918;2023-05-10T08:11:54;17.00;1.00
7014;DHT22;3547;50.774;12.918;2023-05-10T08:14:32;17.00;1.00
7014;DHT22;3547;50.774;12.918;2023-05-10T08:37:45;16.20;1.00
7014;DHT22;3547;50.774;12.918;2023-05-10T08:40:12;16.10;1.00
7014;DHT22;3547;50.774;12.918;2023-05-10T08:46:22;15.90;1.00
7014;DHT22;3547;50.774;12.918;2023-05-10T08:52:08;15.90;1.00
7014;DHT22;3547;50.774;12.918;2023-05-10T08:54:39;15.90;1.00
7014;DHT22;3547;50.774;12.918;2023-05-10T08:57:06;15.90;1.00
7014;DHT22;3547;50.774;12.918;2023-05-10T08:59:36;15.90;1.00
7014;DHT22;3547;50.774;12.918;2023-05-10T09:02:05;15.80;1.00
7014;DHT22;3547;50.774;12.918;2023-05-10T09:04:35;15.70;1.00
7014;DHT22;3547;50.774;12.918;2023-05-10T09:07:01;15.60;1.00
7014;DHT22;3547;50.774;12.918;2023-05-10T09:09:27;15.60;1.00
7014;DHT22;3547;50.774;12.918;2023-05-10T09:11:54;15.60;1.00
7014;DHT22;3547;50.774;12.918;2023-05-10T09:14:21;15.50;1.00
7014;DHT22;3547;50.774;12.918;2023-05-10T09:19:36;15.30;1.00
7014;DHT22;3547;50.774;12.918;2023-05-10T09:22:05;15.20;1.00
7014;DHT22;3547;50.774;12.918;2023-05-10T09:24:33;15.10;1.00
7014;DHT22;3547;50.774;12.918;2023-05-10T09:26:59;14.90;1.00
7014;DHT22;3547;50.774;12.918;2023-05-10T09:29:41;14.80;1.00
7014;DHT22;3547;50.774;12.918;2023-05-10T09:32:07;14.80;1.00
7014;DHT22;3547;50.774;12.918;2023-05-10T09:34:34;14.80;1.00
7014;DHT22;3547;50.774;12.918;2023-05-10T09:37:09;14.70;1.00
7014;DHT22;3547;50.774;12.918;2023-05-10T09:39:43;14.70;1.00
7014;DHT22;3547;50.774;12.918;2023-05-10T09:42:10;14.60;1.00
7014;DHT22;3547;50.774;12.918;2023-05-10T09:47:35;14.60;1.00
7014;DHT22;3547;50.774;12.918;2023-05-10T09:50:03;14.60;1.00
7014;DHT22;3547;50.774;12.918;2023-05-10T09:52:31;14.50;1.00
7014;DHT22;3547;50.774;12.918;2023-05-10T09:58:36;14.40;1.00
7014;DHT22;3547;50.774;12.918;2023-05-10T10:01:04;14.30;1.00
7014;DHT22;3547;50.774;12.918;2023-05-10T10:03:33;14.40;1.00
7014;DHT22;3547;50.774;12.918;2023-05-10T10:09:22;14.30;1.00
7014;DHT22;3547;50.774;12.918;2023-05-10T10:14:29;14.40;1.00
7014;DHT22;3547;50.774;12.918;2023-05-10T10:16:55;14.40;1.00
7014;DHT22;3547;50.774;12.918;2023-05-10T10:36:02;14.40;1.00
7014;DHT22;3547;50.774;12.918;2023-05-10T10:38:56;14.30;1.00
7014;DHT22;3547;50.774;12.918;2023-05-10T10:41:36;14.30;1.00
7014;DHT22;3547;50.774;12.918;2023-05-10T10:47:07;14.20;1.00
7014;DHT22;3547;50.774;12.918;2023-05-10T10:52:36;14.20;1.00
7014;DHT22;3547;50.774;12.918;2023-05-10T10:55:14;14.20;1.00
7014;DHT22;3547;50.774;12.918;2023-05-10T11:03:05;14.10;1.00
7014;DHT22;3547;50.774;12.918;2023-05-10T11:09:10;14.10;1.00
7014;DHT22;3547;50.774;12.918;2023-05-10T11:12:07;14.10;1.00
7014;DHT22;3547;50.774;12.918;2023-05-10T11:17:31;14.20;1.00
7014;DHT22;3547;50.774;12.918;2023-05-10T11:23:14;14.20;1.00
7014;DHT22;3547;50.774;12.918;2023-05-10T11:28:20;14.10;1.00
7014;DHT22;3547;50.774;12.918;2023-05-10T11:30:47;14.10;1.00
7014;DHT22;3547;50.774;12.918;2023-05-10T11:33:17;14.00;1.00
7014;DHT22;3547;50.774;12.918;2023-05-10T11:44:31;13.80;1.00
7014;DHT22;3547;50.774;12.918;2023-05-10T11:47:01;13.90;1.00
7014;DHT22;3547;50.774;12.918;2023-05-10T11:49:29;14.00;1.00
7014;DHT22;3547;50.774;12.918;2023-05-10T11:52:11;14.00;1.00
7014;DHT22;3547;50.774;12.918;2023-05-10T11:54:58;14.10;1.00
7014;DHT22;3547;50.774;12.918;2023-05-10T11:57:28;14.20;1.00
7014;DHT22;3547;50.774;12.918;2023-05-10T12:00:04;14.30;1.00
7014;DHT22;3547;50.774;12.918;2023-05-10T12:02:33;14.30;1.00
7014;DHT22;3547;50.774;12.918;2023-05-10T12:05:04;14.40;1.00
7014;DHT22;3547;50.774;12.918;2023-05-10T12:07:34;14.40;1.00
7014;DHT22;3547;50.774;12.918;2023-05-10T12:20:26;14.80;1.00
7014;DHT22;3547;50.774;12.918;2023-05-10T12:23:25;14.90;1.00
7014;DHT22;3547;50.774;12.918;2023-05-10T12:26:02;14.90;1.00
7014;DHT22;3547;50.774;12.918;2023-05-10T12:28:34;14.90;1.00
7014;DHT22;3547;50.774;12.918;2023-05-10T12:31:05;14.90;1.00
7014;DHT22;3547;50.774;12.918;2023-05-10T12:33:47;14.90;1.00
7014;DHT22;3547;50.774;12.918;2023-05-10T12:36:26;14.90;1.00
7014;DHT22;3547;50.774;12.918;2023-05-10T12:39:02;15.00;1.00
7014;DHT22;3547;50.774;12.918;2023-05-10T12:41:29;15.00;1.00
7014;DHT22;3547;50.774;12.918;2023-05-10T12:43:58;15.10;1.00
7014;DHT22;3547;50.774;12.918;2023-05-10T12:46:24;15.10;1.00
7014;DHT22;3547;50.774;12.918;2023-05-10T12:48:53;15.20;1.00
7014;DHT22;3547;50.774;12.918;2023-05-10T12:51:26;15.20;1.00
7014;DHT22;3547;50.774;12.918;2023-05-10T12:54:02;15.30;1.00
7014;DHT22;3547;50.774;12.918;2023-05-10T12:56:37;15.40;1.00
7014;DHT22;3547;50.774;12.918;2023-05-10T12:59:06;15.50;1.00
7014;DHT22;3547;50.774;12.918;2023-05-10T13:01:33;15.60;1.00
7014;DHT22;3547;50.774;12.918;2023-05-10T13:03:59;15.70;1.00
7014;DHT22;3547;50.774;12.918;2023-05-10T13:06:26;15.80;1.00
7014;DHT22;3547;50.774;12.918;2023-05-10T13:08:53;16.00;1.00
7014;DHT22;3547;50.774;12.918;2023-05-10T13:11:23;16.10;1.00
7014;DHT22;3547;50.774;12.918;2023-05-10T13:13:49;16.30;1.00
7014;DHT22;3547;50.774;12.918;2023-05-10T13:16:17;16.40;1.00
7014;DHT22;3547;50.774;12.918;2023-05-10T13:18:43;16.50;1.00
7014;DHT22;3547;50.774;12.918;2023-05-10T13:21:20;16.70;1.00
7014;DHT22;3547;50.774;12.918;2023-05-10T13:23:49;16.80;1.00
7014;DHT22;3547;50.774;12.918;2023-05-10T13:26:21;17.00;1.00
7014;DHT22;3547;50.774;12.918;2023-05-10T13:28:55;17.10;1.00
7014;DHT22;3547;50.774;12.918;2023-05-10T13:31:22;17.30;1.00
7014;DHT22;3547;50.774;12.918;2023-05-10T13:33:48;17.40;1.00
7014;DHT22;3547;50.774;12.918;2023-05-10T13:36:20;17.60;1.00
7014;DHT22;3547;50.774;12.918;2023-05-10T13:38:46;17.60;1.00
7014;DHT22;3547;50.774;12.918;2023-05-10T13:41:21;17.70;1.00
7014;DHT22;3547;50.774;12.918;2023-05-10T13:43:47;17.70;1.00
7014;DHT22;3547;50.774;12.918;2023-05-10T13:46:17;17.70;1.00
7014;DHT22;3547;50.774;12.918;2023-05-10T13:48:43;17.70;1.00
7014;DHT22;3547;50.774;12.918;2023-05-10T13:51:09;17.70;1.00
7014;DHT22;3547;50.774;12.918;2023-05-10T13:53:35;17.70;1.00
7014;DHT22;3547;50.774;12.918;2023-05-10T13:56:02;17.70;1.00
7014;DHT22;3547;50.774;12.918;2023-05-10T13:58:28;17.80;1.00
7014;DHT22;3547;50.774;12.918;2023-05-10T14:00:58;17.70;1.00
7014;DHT22;3547;50.774;12.918;2023-05-10T14:03:24;17.70;1.00
7014;DHT22;3547;50.774;12.918;2023-05-10T14:05:50;17.70;1.00
7014;DHT22;3547;50.774;12.918;2023-05-10T14:08:16;17.70;1.00
7014;DHT22;3547;50.774;12.918;2023-05-10T14:10:43;17.70;1.00
7014;DHT22;3547;50.774;12.918;2023-05-10T14:13:09;17.60;1.00
7014;DHT22;3547;50.774;12.918;2023-05-10T14:15:35;17.50;1.00
7014;DHT22;3547;50.774;12.918;2023-05-10T14:18:02;17.40;1.00
7014;DHT22;3547;50.774;12.918;2023-05-10T14:20:28;17.40;1.00
7014;DHT22;3547;50.774;12.918;2023-05-10T14:22:54;17.40;1.00
7014;DHT22;3547;50.774;12.918;2023-05-10T14:25:20;17.40;1.00
7014;DHT22;3547;50.774;12.918;2023-05-10T14:27:47;17.40;1.00
7014;DHT22;3547;50.774;12.918;2023-05-10T14:30:13;17.30;1.00
7014;DHT22;3547;50.774;12.918;2023-05-10T14:32:40;17.30;1.00
7014;DHT22;3547;50.774;12.918;2023-05-10T14:35:07;17.30;1.00
7014;DHT22;3547;50.774;12.918;2023-05-10T14:37:33;17.20;1.00
7014;DHT22;3547;50.774;12.918;2023-05-10T14:39:59;17.20;1.00
7014;DHT22;3547;50.774;12.918;2023-05-10T14:42:26;17.10;1.00
7014;DHT22;3547;50.774;12.918;2023-05-10T14:44:53;17.10;1.00
7014;DHT22;3547;50.774;12.918;2023-05-10T14:47:20;17.10;1.00
7014;DHT22;3547;50.774;12.918;2023-05-10T14:49:46;17.10;1.00
7014;DHT22;3547;50.774;12.918;2023-05-10T14:52:12;17.10;1.00
7014;DHT22;3547;50.774;12.918;2023-05-10T14:54:40;16.90;1.00
7014;DHT22;3547;50.774;12.918;2023-05-10T14:57:07;16.80;1.00
7014;DHT22;3547;50.774;12.918;2023-05-10T14:59:33;16.80;1.00
7014;DHT22;3547;50.774;12.918;2023-05-10T15:01:59;16.90;1.00
7014;DHT22;3547;50.774;12.918;2023-05-10T15:04:25;16.90;1.00
7014;DHT22;3547;50.774;12.918;2023-05-10T15:06:52;16.90;1.00
7014;DHT22;3547;50.774;12.918;2023-05-10T15:09:18;16.90;1.00
7014;DHT22;3547;50.774;12.918;2023-05-10T15:11:44;16.90;1.00
7014;DHT22;3547;50.774;12.918;2023-05-10T15:14:10;16.80;1.00
7014;DHT22;3547;50.774;12.918;2023-05-10T15:16:36;16.80;1.00
7014;DHT22;3547;50.774;12.918;2023-05-10T15:19:03;16.80;1.00
7014;DHT22;3547;50.774;12.918;2023-05-10T15:21:29;16.70;1.00
7014;DHT22;3547;50.774;12.918;2023-05-10T15:24:00;16.80;1.00
7014;DHT22;3547;50.774;12.918;2023-05-10T15:26:27;16.70;1.00
7014;DHT22;3547;50.774;12.918;2023-05-10T15:29:03;16.70;1.00
7014;DHT22;3547;50.774;12.918;2023-05-10T15:31:36;16.60;1.00
7014;DHT22;3547;50.774;12.918;2023-05-10T15:34:28;16.60;1.00
7014;DHT22;3547;50.774;12.918;2023-05-10T15:36:57;16.60;1.00
7014;DHT22;3547;50.774;12.918;2023-05-10T15:39:29;16.60;1.00
7014;DHT22;3547;50.774;12.918;2023-05-10T15:41:58;16.60;1.00
7014;DHT22;3547;50.774;12.918;2023-05-10T15:44:25;16.50;1.00
7014;DHT22;3547;50.774;12.918;2023-05-10T15:47:01;16.40;1.00
7014;DHT22;3547;50.774;12.918;2023-05-10T15:49:30;16.40;1.00
7014;DHT22;3547;50.774;12.918;2023-05-10T15:51:57;16.30;1.00
7014;DHT22;3547;50.774;12.918;2023-05-10T15:54:26;16.30;1.00
7014;DHT22;3547;50.774;12.918;2023-05-10T15:56:54;16.20;1.00
7014;DHT22;3547;50.774;12.918;2023-05-10T15:59:21;16.10;1.00
7014;DHT22;3547;50.774;12.918;2023-05-10T16:01:48;16.10;1.00
7014;DHT22;3547;50.774;12.918;2023-05-10T16:04:17;16.10;1.00
7014;DHT22;3547;50.774;12.918;2023-05-10T16:06:46;16.00;1.00
7014;DHT22;3547;50.774;12.918;2023-05-10T16:09:13;16.00;1.00
7014;DHT22;3547;50.774;12.918;2023-05-10T16:11:42;15.80;1.00
7014;DHT22;3547;50.774;12.918;2023-05-10T16:14:09;15.80;1.00
7014;DHT22;3547;50.774;12.918;2023-05-10T16:16:35;15.80;1.00
7014;DHT22;3547;50.774;12.918;2023-05-10T16:19:10;15.70;1.00
7014;DHT22;3547;50.774;12.918;2023-05-10T16:21:37;15.70;1.00
7014;DHT22;3547;50.774;12.918;2023-05-10T16:24:04;15.70;1.00
7014;DHT22;3547;50.774;12.918;2023-05-10T16:26:30;15.60;1.00
7014;DHT22;3547;50.774;12.918;2023-05-10T16:28:56;15.50;1.00
7014;DHT22;3547;50.774;12.918;2023-05-10T16:31:23;15.50;1.00
7014;DHT22;3547;50.774;12.918;2023-05-10T16:33:49;15.40;1.00
7014;DHT22;3547;50.774;12.918;2023-05-10T16:36:15;15.30;1.00
7014;DHT22;3547;50.774;12.918;2023-05-10T16:38:42;15.30;1.00
7014;DHT22;3547;50.774;12.918;2023-05-10T16:41:08;15.30;1.00
7014;DHT22;3547;50.774;12.918;2023-05-10T16:43:34;15.20;1.00
7014;DHT22;3547;50.774;12.918;2023-05-10T16:49:24;15.10;5.50
7014;DHT22;3547;50.774;12.918;2023-05-10T16:51:51;15.10;4.50
7014;DHT22;3547;50.774;12.918;2023-05-10T16:54:17;15.00;7.00
7014;DHT22;3547;50.774;12.918;2023-05-10T16:56:43;15.00;8.60
7014;DHT22;3547;50.774;12.918;2023-05-10T16:59:10;14.90;10.90
7014;DHT22;3547;50.774;12.918;2023-05-10T17:01:46;14.90;16.40
7014;DHT22;3547;50.774;12.918;2023-05-10T17:04:13;14.90;17.50
7014;DHT22;3547;50.774;12.918;2023-05-10T17:06:39;14.80;17.70
7014;DHT22;3547;50.774;12.918;2023-05-10T17:09:05;14.80;18.10
7014;DHT22;3547;50.774;12.918;2023-05-10T17:11:32;14.80;19.10
7014;DHT22;3547;50.774;12.918;2023-05-10T17:13:59;14.80;17.00
7014;DHT22;3547;50.774;12.918;2023-05-10T17:16:26;14.70;19.40
7014;DHT22;3547;50.774;12.918;2023-05-10T17:18:52;14.80;18.80
7014;DHT22;3547;50.774;12.918;2023-05-10T17:21:18;14.80;19.10
7014;DHT22;3547;50.774;12.918;2023-05-10T17:23:51;14.70;18.70
7014;DHT22;3547;50.774;12.918;2023-05-10T17:26:17;14.70;21.30
7014;DHT22;3547;50.774;12.918;2023-05-10T17:29:15;14.70;22.60
7014;DHT22;3547;50.774;12.918;2023-05-10T17:35:09;14.70;27.00
7014;DHT22;3547;50.774;12.918;2023-05-10T17:37:40;14.60;26.00
7014;DHT22;3547;50.774;12.918;2023-05-10T17:40:13;14.60;24.20
7014;DHT22;3547;50.774;12.918;2023-05-10T17:42:40;14.50;30.80
